Time;durP1;ratioP1;P1;durP2;ratioP2;P2;SDS_P1;SDS_P2;PMS_P1;PMS_P2;Temp;Humidity;BMP_temperature;BMP_pressure;BME280_temperature;BME280_humidity;BME280_pressure;Samples;Min_cycle;Max_cycle;Signal;HPM_P1;HPM_P2
2022/06/02 00:00:53;;;;;;;5.07;3.20;;;9.20;99.90;;;;;;5024155;28;20288;-42
2022/06/02 00:03:22;;;;;;;3.40;3.07;;;9.10;99.90;;;;;;5096970;28;20168;-43
2022/06/02 00:06:11;;;;;;;3.37;3.07;;;9.00;99.90;;;;;;5096639;28;20207;-41
2022/06/02 00:08:36;;;;;;;4.27;3.40;;;9.00;99.90;;;;;;5096658;28;20203;-43
2022/06/02 00:11:29;;;;;;;5.00;3.63;;;9.00;99.90;;;;;;5096598;28;20577;-43
2022/06/02 00:14:11;;;;;;;4.17;3.33;;;8.90;99.90;;;;;;5096597;28;20625;-41
2022/06/02 00:16:50;;;;;;;5.20;3.30;;;8.90;99.90;;;;;;5096415;28;20223;-42
2022/06/02 00:19:28;;;;;;;5.10;3.83;;;8.80;99.90;;;;;;5096423;28;20203;-43
2022/06/02 00:22:33;;;;;;;4.07;3.30;;;8.70;99.90;;;;;;5096325;28;20254;-43
2022/06/02 00:25:22;;;;;;;6.00;3.90;;;8.70;99.90;;;;;;5096471;28;20174;-42
2022/06/02 00:28:21;;;;;;;4.03;3.17;;;8.60;99.90;;;;;;5096358;28;20203;-44
2022/06/02 00:31:18;;;;;;;5.20;3.70;;;8.60;99.90;;;;;;5096438;28;20259;-42
2022/06/02 00:34:22;;;;;;;4.60;3.47;;;8.50;99.90;;;;;;5096281;28;20214;-42
2022/06/02 00:37:03;;;;;;;5.47;3.67;;;8.50;99.90;;;;;;5014145;28;20316;-42
2022/06/02 00:39:31;;;;;;;3.77;3.37;;;8.40;99.90;;;;;;4997977;28;20257;-41
2022/06/02 00:42:08;;;;;;;4.27;3.37;;;8.30;99.90;;;;;;5044345;28;20194;-42
2022/06/02 00:44:50;;;;;;;4.30;3.77;;;8.30;99.90;;;;;;5096837;28;20167;-42
2022/06/02 00:47:28;;;;;;;8.10;3.43;;;8.20;99.90;;;;;;5096081;28;20179;-42
2022/06/02 00:50:05;;;;;;;5.23;3.17;;;8.20;99.90;;;;;;5095986;28;20182;-42
2022/06/02 00:52:51;;;;;;;7.00;4.10;;;8.10;99.90;;;;;;5078044;28;20171;-42
2022/06/02 00:58:48;;;;;;;4.30;3.43;;;8.00;99.90;;;;;;5096698;28;20233;-41
2022/06/02 01:01:22;;;;;;;4.37;3.70;;;8.00;99.90;;;;;;5096874;28;20210;-43
2022/06/02 01:03:49;;;;;;;6.90;4.43;;;8.00;99.90;;;;;;5098436;28;20258;-42
2022/06/02 01:06:27;;;;;;;5.60;3.63;;;8.00;99.90;;;;;;5100973;28;20270;-42
2022/06/02 01:09:35;;;;;;;9.13;4.60;;;7.90;99.90;;;;;;5100121;28;20191;-42
2022/06/02 01:12:24;;;;;;;5.17;4.60;;;7.80;99.90;;;;;;5057881;28;20194;-42
2022/06/02 01:15:03;;;;;;;6.77;4.53;;;7.80;99.90;;;;;;5095761;28;20159;-42
2022/06/02 01:17:43;;;;;;;5.27;4.73;;;7.80;99.90;;;;;;5095470;28;20175;-44
2022/06/02 01:20:52;;;;;;;5.83;4.50;;;7.80;99.90;;;;;;5095104;28;20269;-41
2022/06/02 01:23:43;;;;;;;6.20;4.67;;;7.80;99.90;;;;;;5095248;28;20614;-40
2022/06/02 01:26:31;;;;;;;5.13;4.37;;;7.70;99.90;;;;;;5064192;28;20638;-41
2022/06/02 01:29:12;;;;;;;5.63;4.23;;;7.70;99.90;;;;;;5094849;28;20260;-41
2022/06/02 01:31:40;;;;;;;5.23;4.20;;;7.60;99.90;;;;;;5095742;28;20171;-42
2022/06/02 01:34:28;;;;;;;5.67;4.77;;;7.60;99.90;;;;;;5095034;28;20179;-44
2022/06/02 01:37:03;;;;;;;5.30;4.80;;;7.60;99.90;;;;;;5094973;28;20174;-44
2022/06/02 01:40:05;;;;;;;4.87;4.37;;;7.50;99.90;;;;;;5094653;28;20202;-41
2022/06/02 01:42:53;;;;;;;6.03;4.80;;;7.50;99.90;;;;;;5094886;28;20530;-41
2022/06/02 01:45:27;;;;;;;4.90;3.97;;;7.50;99.90;;;;;;5094924;28;20258;-42
2022/06/02 01:48:19;;;;;;;5.63;4.67;;;7.40;99.90;;;;;;5094794;28;20202;-42
2022/06/02 01:51:11;;;;;;;5.37;4.50;;;7.40;99.90;;;;;;5094895;28;20170;-44
2022/06/02 01:53:36;;;;;;;7.17;4.37;;;7.30;99.90;;;;;;5064266;28;20202;-42
2022/06/02 01:56:13;;;;;;;7.43;4.90;;;7.30;99.90;;;;;;5095654;28;20183;-41
2022/06/02 01:58:48;;;;;;;7.83;4.80;;;7.30;99.90;;;;;;5094497;28;20263;-43
2022/06/02 02:01:39;;;;;;;6.43;5.07;;;7.30;99.90;;;;;;5094626;28;20221;-42
2022/06/02 02:04:16;;;;;;;6.33;4.73;;;7.20;99.90;;;;;;5094241;28;20647;-42
2022/06/02 02:07:08;;;;;;;6.43;4.80;;;7.20;99.90;;;;;;5094201;28;20223;-45
2022/06/02 02:10:08;;;;;;;6.40;4.87;;;7.20;99.90;;;;;;5094038;28;20194;-41
2022/06/02 02:13:08;;;;;;;5.77;4.63;;;7.10;99.90;;;;;;5094395;28;20240;-43
2022/06/02 02:15:55;;;;;;;5.87;4.57;;;7.10;99.90;;;;;;5050608;28;20190;-43
2022/06/02 02:18:36;;;;;;;5.93;4.70;;;7.00;99.90;;;;;;5094584;28;20198;-43
2022/06/02 02:21:32;;;;;;;5.60;4.67;;;7.00;99.90;;;;;;5075795;28;20202;-41
2022/06/02 02:24:11;;;;;;;6.73;5.50;;;6.90;99.90;;;;;;5065228;28;20199;-42
2022/06/02 02:26:44;;;;;;;6.17;5.17;;;6.90;99.90;;;;;;5094125;28;20216;-44
2022/06/02 02:29:29;;;;;;;6.87;5.03;;;6.80;99.90;;;;;;5093715;28;20202;-42
2022/06/02 02:32:20;;;;;;;6.97;5.50;;;6.80;99.90;;;;;;5094078;28;20161;-42
2022/06/02 02:35:13;;;;;;;7.37;5.63;;;6.70;99.90;;;;;;5094111;28;20170;-41
2022/06/02 02:37:41;;;;;;;6.93;5.73;;;6.70;99.90;;;;;;5093626;28;20616;-44
2022/06/02 02:40:18;;;;;;;6.27;5.60;;;6.60;99.90;;;;;;5093664;28;20281;-42
2022/06/02 02:42:51;;;;;;;7.00;5.37;;;6.60;99.90;;;;;;5093869;28;20633;-42
2022/06/02 02:45:44;;;;;;;8.37;5.97;;;6.60;99.90;;;;;;5094193;28;20166;-43
2022/06/02 02:48:43;;;;;;;7.40;5.73;;;6.60;99.90;;;;;;5094066;28;20205;-41
2022/06/02 02:51:39;;;;;;;7.27;5.77;;;6.50;99.90;;;;;;5093554;28;20272;-43
2022/06/02 02:54:42;;;;;;;5.80;5.20;;;6.50;99.90;;;;;;5093997;28;20226;-42
2022/06/02 02:57:22;;;;;;;8.27;5.70;;;6.40;99.90;;;;;;5093559;28;20177;-42
2022/06/02 03:00:04;;;;;;;7.97;5.53;;;6.40;99.90;;;;;;5075371;28;20704;-42
2022/06/02 03:02:40;;;;;;;12.00;6.50;;;6.30;99.90;;;;;;5094170;28;20242;-42
2022/06/02 03:05:33;;;;;;;7.00;5.60;;;6.30;99.90;;;;;;5094210;28;20575;-43
2022/06/02 03:08:06;;;;;;;6.60;5.67;;;6.30;99.90;;;;;;5094841;28;20246;-41
2022/06/02 03:10:37;;;;;;;7.20;5.80;;;6.30;99.90;;;;;;5094241;28;20178;-41
2022/06/02 03:13:21;;;;;;;7.50;5.63;;;6.20;99.90;;;;;;5093573;28;20165;-42
2022/06/02 03:15:57;;;;;;;7.77;5.73;;;6.20;99.90;;;;;;5093982;28;20516;-42
2022/06/02 03:19:09;;;;;;;7.70;5.27;;;6.20;99.90;;;;;;5076144;28;20213;-42
2022/06/02 03:21:36;;;;;;;8.00;5.53;;;6.20;99.90;;;;;;5098619;28;20228;-43
2022/06/02 03:24:50;;;;;;;8.30;5.73;;;6.10;99.90;;;;;;5098331;28;20548;-42
2022/06/02 03:27:49;;;;;;;8.10;5.13;;;6.10;99.90;;;;;;5025134;28;20299;-42
2022/06/02 03:30:19;;;;;;;6.13;5.43;;;6.10;99.90;;;;;;5079052;28;20173;-41
2022/06/02 03:32:52;;;;;;;8.00;5.60;;;6.10;99.90;;;;;;5097323;28;20212;-41
2022/06/02 03:35:39;;;;;;;7.03;5.70;;;6.10;99.90;;;;;;5097595;28;20168;-40
2022/06/02 03:38:20;;;;;;;8.13;6.17;;;6.00;99.90;;;;;;5097220;28;20213;-40
2022/06/02 03:40:54;;;;;;;6.60;5.30;;;6.00;99.90;;;;;;5097084;28;20201;-42
2022/06/02 03:43:37;;;;;;;6.80;5.33;;;6.00;99.90;;;;;;5096964;28;20191;-42
2022/06/02 03:46:15;;;;;;;7.83;5.77;;;6.00;99.90;;;;;;5097237;28;20230;-41
2022/06/02 03:48:49;;;;;;;6.23;5.40;;;5.90;99.90;;;;;;5097161;28;20550;-42
2022/06/02 03:51:24;;;;;;;6.87;5.47;;;5.90;99.90;;;;;;5096863;28;20183;-42
2022/06/02 03:54:14;;;;;;;8.67;5.23;;;5.90;99.90;;;;;;5096970;28;20185;-42
2022/06/02 03:57:16;;;;;;;6.37;5.30;;;5.90;99.90;;;;;;5097230;28;20175;-41
2022/06/02 03:59:59;;;;;;;10.23;6.03;;;5.90;99.90;;;;;;5096738;28;20180;-41
2022/06/02 04:03:01;;;;;;;6.87;5.83;;;5.90;99.90;;;;;;5096862;28;20592;-40
2022/06/02 04:05:48;;;;;;;6.83;5.60;;;5.90;99.90;;;;;;5096793;28;20538;-42
2022/06/02 04:08:53;;;;;;;6.33;5.63;;;5.90;99.90;;;;;;5096850;28;20660;-43
2022/06/02 04:15:12;;;;;;;7.83;6.10;;;5.90;99.90;;;;;;4995176;28;20676;-42
2022/06/02 04:18:02;;;;;;;7.93;5.93;;;5.90;99.90;;;;;;4995067;28;20291;-42
2022/06/02 04:20:57;;;;;;;7.50;6.20;;;6.00;99.90;;;;;;5073479;28;20664;-41
2022/06/02 04:23:37;;;;;;;6.80;5.50;;;6.00;99.90;;;;;;5024606;28;20211;-43
2022/06/02 04:26:23;;;;;;;7.50;5.90;;;6.00;99.90;;;;;;5096734;28;20155;-41
2022/06/02 04:29:11;;;;;;;8.23;6.23;;;6.00;99.90;;;;;;5096389;28;20205;-43
2022/06/02 04:31:48;;;;;;;8.47;6.27;;;6.10;99.90;;;;;;5096818;28;20264;-43
2022/06/02 04:34:33;;;;;;;7.93;6.27;;;6.10;99.90;;;;;;5101063;28;20176;-43
2022/06/02 04:37:17;;;;;;;7.73;6.67;;;6.10;99.90;;;;;;5103618;28;20212;-42
2022/06/02 04:40:40;;;;;;;10.13;6.93;;;6.20;99.90;;;;;;5100752;28;20165;-43
2022/06/02 04:43:18;;;;;;;8.50;6.37;;;6.30;99.90;;;;;;5013991;28;20773;-42
2022/06/02 04:46:17;;;;;;;10.97;6.77;;;6.30;99.90;;;;;;5014137;28;20225;-41
2022/06/02 04:48:55;;;;;;;7.00;5.87;;;6.40;99.90;;;;;;5076967;28;20708;-42
2022/06/02 04:51:42;;;;;;;7.87;7.07;;;6.40;99.90;;;;;;5096010;28;20211;-41
2022/06/02 04:54:26;;;;;;;9.00;7.10;;;6.60;99.90;;;;;;5095816;28;20649;-42
2022/06/02 04:57:18;;;;;;;9.80;7.33;;;6.60;99.90;;;;;;5095861;28;20192;-42
2022/06/02 04:59:55;;;;;;;12.57;8.00;;;6.80;99.90;;;;;;5095365;28;20177;-41
2022/06/02 05:02:43;;;;;;;10.00;8.30;;;6.90;99.90;;;;;;5095377;28;20184;-42
2022/06/02 05:05:53;;;;;;;10.03;8.43;;;7.00;99.90;;;;;;5095990;28;20528;-40
2022/06/02 05:08:51;;;;;;;11.90;8.80;;;7.10;99.90;;;;;;5095479;28;20540;-42
2022/06/02 05:11:39;;;;;;;12.93;9.30;;;7.20;99.90;;;;;;5077793;28;20194;-42
2022/06/02 05:14:16;;;;;;;13.60;9.50;;;7.40;99.90;;;;;;5095664;28;20177;-42
2022/06/02 05:17:07;;;;;;;14.87;9.53;;;7.50;99.90;;;;;;5096259;28;20664;-41
2022/06/02 05:19:52;;;;;;;12.97;9.70;;;7.50;99.90;;;;;;5095189;28;20612;-43
2022/06/02 05:22:44;;;;;;;16.73;10.77;;;7.70;99.90;;;;;;5095299;28;20582;-40
2022/06/02 05:25:29;;;;;;;15.70;11.77;;;7.80;99.90;;;;;;5095200;28;20184;-42
2022/06/02 05:28:09;;;;;;;14.30;11.57;;;8.00;99.90;;;;;;5076598;28;20278;-42
2022/06/02 05:30:46;;;;;;;22.57;12.53;;;8.10;99.90;;;;;;5095431;28;20184;-41
2022/06/02 05:33:34;;;;;;;16.37;12.53;;;8.30;99.90;;;;;;5095286;28;20222;-41
2022/06/02 05:36:12;;;;;;;17.63;12.97;;;8.50;99.90;;;;;;5095201;28;20174;-42
2022/06/02 05:39:01;;;;;;;16.27;12.43;;;8.70;99.90;;;;;;5094635;28;20203;-42
2022/06/02 05:41:55;;;;;;;16.77;12.23;;;8.90;99.90;;;;;;5094325;28;20238;-41
2022/06/02 05:44:26;;;;;;;19.80;15.07;;;9.00;99.90;;;;;;5095053;28;20153;-42
2022/06/02 05:47:20;;;;;;;20.50;15.20;;;9.10;99.90;;;;;;5095043;28;20174;-42
2022/06/02 05:49:51;;;;;;;16.53;13.07;;;9.30;99.90;;;;;;5094668;28;20223;-42
2022/06/02 05:52:35;;;;;;;18.60;13.63;;;9.40;99.90;;;;;;5094463;28;20501;-41
2022/06/02 05:55:23;;;;;;;17.87;13.73;;;9.50;99.90;;;;;;5094702;28;20676;-42
2022/06/02 05:58:20;;;;;;;17.50;13.47;;;9.60;99.90;;;;;;5094254;28;20191;-44
2022/06/02 06:00:45;;;;;;;17.93;14.00;;;9.80;99.90;;;;;;5072532;28;20217;-42
2022/06/02 06:03:23;;;;;;;18.93;13.70;;;9.90;99.90;;;;;;5091577;28;20664;-42
2022/06/02 06:06:11;;;;;;;19.27;14.30;;;10.10;99.90;;;;;;5094404;28;20205;-42
2022/06/02 06:08:40;;;;;;;18.07;13.33;;;10.40;99.90;;;;;;5085661;28;20577;-43
2022/06/02 06:11:38;;;;;;;17.87;13.50;;;10.50;99.90;;;;;;5094097;28;20179;-42
2022/06/02 06:14:26;;;;;;;19.13;13.07;;;10.80;99.90;;;;;;5094371;28;20160;-41
2022/06/02 06:17:08;;;;;;;18.57;12.60;;;11.00;99.90;;;;;;5093960;28;20186;-43
2022/06/02 06:19:52;;;;;;;24.23;13.37;;;11.30;99.90;;;;;;5094611;28;20194;-42
2022/06/02 06:22:38;;;;;;;22.30;12.63;;;11.60;99.90;;;;;;5094201;28;20160;-42
2022/06/02 06:25:11;;;;;;;16.33;12.47;;;11.80;99.90;;;;;;5094121;28;20159;-42
2022/06/02 06:28:01;;;;;;;17.63;12.53;;;12.20;99.90;;;;;;5093942;28;20199;-40
2022/06/02 06:30:33;;;;;;;16.30;12.47;;;12.50;99.90;;;;;;5094150;28;20222;-43
2022/06/02 06:33:39;;;;;;;15.70;11.67;;;12.80;99.90;;;;;;5094228;28;20175;-42
2022/06/02 06:36:32;;;;;;;14.77;10.63;;;13.20;99.90;;;;;;5093873;28;20179;-41
2022/06/02 06:39:03;;;;;;;14.33;10.43;;;13.60;99.90;;;;;;5093815;28;20191;-44
2022/06/02 06:41:34;;;;;;;16.83;10.83;;;13.90;99.90;;;;;;5093986;28;20199;-44
2022/06/02 06:44:09;;;;;;;14.70;9.80;;;14.20;99.90;;;;;;5094092;28;20181;-41
2022/06/02 06:46:49;;;;;;;16.70;10.03;;;14.40;99.90;;;;;;5094186;28;20184;-43
2022/06/02 06:49:28;;;;;;;12.67;9.83;;;14.70;99.90;;;;;;5093623;28;20597;-42
2022/06/02 06:52:11;;;;;;;12.27;8.97;;;14.90;99.90;;;;;;5075393;28;20174;-42
2022/06/02 06:55:01;;;;;;;13.17;9.33;;;14.90;99.90;;;;;;5093506;28;20633;-43
2022/06/02 06:58:09;;;;;;;11.50;7.47;;;14.90;99.90;;;;;;5093323;28;20159;-43
2022/06/02 07:00:48;;;;;;;9.60;7.77;;;15.20;99.90;;;;;;5065729;28;20589;-43
2022/06/02 07:03:44;;;;;;;9.10;7.50;;;15.50;99.90;;;;;;5093682;28;20487;-43
2022/06/02 07:06:17;;;;;;;6.80;5.67;;;15.90;99.90;;;;;;5093424;28;20156;-43
2022/06/02 07:09:01;;;;;;;7.60;5.70;;;16.20;99.90;;;;;;5093587;28;20200;-43
2022/06/02 07:15:11;;;;;;;8.13;6.60;;;16.50;99.90;;;;;;5093691;28;20530;-37
2022/06/02 07:17:41;;;;;;;6.77;5.10;;;16.60;99.90;;;;;;5093843;28;20190;-38
2022/06/02 07:20:31;;;;;;;6.07;5.07;;;16.70;99.90;;;;;;5093175;28;20187;-39
2022/06/02 07:23:07;;;;;;;6.20;4.87;;;16.90;99.90;;;;;;5093436;28;20159;-40
2022/06/02 07:25:54;;;;;;;9.93;6.60;;;16.90;99.90;;;;;;5093373;28;20171;-41
2022/06/02 07:29:07;;;;;;;8.93;6.10;;;16.90;99.90;;;;;;5093041;28;20194;-41
2022/06/02 07:31:59;;;;;;;9.20;6.07;;;17.10;99.90;;;;;;5021280;28;20201;-40
2022/06/02 07:34:27;;;;;;;6.73;5.93;;;17.50;99.90;;;;;;5062609;28;20199;-41
2022/06/02 07:37:11;;;;;;;6.60;5.90;;;17.80;99.90;;;;;;5093314;28;20502;-41
2022/06/02 07:39:48;;;;;;;8.30;5.50;;;17.90;99.90;;;;;;5093027;28;20191;-40
2022/06/02 07:42:51;;;;;;;6.10;5.30;;;18.10;99.90;;;;;;5093146;28;20159;-40
2022/06/02 07:45:35;;;;;;;8.17;4.57;;;18.40;99.90;;;;;;5093214;28;20205;-40
2022/06/02 07:48:26;;;;;;;6.50;5.40;;;18.60;99.90;;;;;;5093275;28;20202;-41
2022/06/02 07:51:17;;;;;;;5.57;5.07;;;18.60;99.90;;;;;;5093490;28;20166;-46
2022/06/02 07:54:22;;;;;;;4.93;4.43;;;18.60;99.90;;;;;;5075184;28;20244;-39
2022/06/02 07:57:24;;;;;;;4.80;4.17;;;18.30;99.90;;;;;;5089320;28;20236;-38
2022/06/02 08:00:03;;;;;;;4.87;4.10;;;17.90;99.90;;;;;;5067822;28;20574;-39
2022/06/02 08:02:49;;;;;;;3.70;3.40;;;17.70;99.90;;;;;;5074786;28;20182;-39
2022/06/02 08:06:00;;;;;;;4.77;3.20;;;17.90;99.90;;;;;;5076349;28;20171;-39
2022/06/02 08:08:51;;;;;;;5.07;4.57;;;18.20;99.90;;;;;;5075906;28;20294;-41
2022/06/02 08:11:33;;;;;;;4.37;3.97;;;18.10;99.90;;;;;;5096872;28;20163;-40
2022/06/02 08:14:10;;;;;;;3.63;3.30;;;17.80;99.90;;;;;;5096789;28;20246;-41
2022/06/02 08:17:20;;;;;;;4.60;4.20;;;17.70;99.90;;;;;;5096879;28;20190;-40
2022/06/02 08:20:23;;;;;;;6.07;3.97;;;17.60;99.90;;;;;;5095512;28;20195;-38
2022/06/02 08:23:24;;;;;;;4.30;3.30;;;17.60;99.90;;;;;;5096357;28;20202;-39
2022/06/02 08:25:49;;;;;;;4.20;3.10;;;17.70;99.90;;;;;;5096197;28;20163;-38
2022/06/02 08:28:36;;;;;;;3.23;2.90;;;17.70;99.90;;;;;;5096153;28;20270;-41
2022/06/02 08:31:35;;;;;;;12.67;3.37;;;17.70;99.90;;;;;;5096482;28;20249;-39
2022/06/02 08:34:29;;;;;;;4.97;3.40;;;17.50;99.90;;;;;;5096514;28;20254;-40
2022/06/02 08:37:06;;;;;;;5.77;3.20;;;17.50;99.90;;;;;;5066557;28;20222;-39
2022/06/02 08:39:52;;;;;;;6.33;3.40;;;17.60;99.90;;;;;;5096008;28;20620;-41
2022/06/02 08:43:08;;;;;;;4.37;3.33;;;17.50;99.90;;;;;;5095802;28;20171;-40
2022/06/02 08:46:12;;;;;;;3.93;3.00;;;17.50;99.90;;;;;;5095760;28;20274;-40
2022/06/02 08:49:03;;;;;;;3.07;2.77;;;17.60;99.90;;;;;;5095772;28;20222;-40
2022/06/02 08:51:44;;;;;;;5.13;3.37;;;17.60;99.90;;;;;;5095658;28;20253;-40
2022/06/02 08:54:22;;;;;;;4.53;3.33;;;17.60;99.90;;;;;;5095875;28;20155;-41
2022/06/02 08:57:05;;;;;;;5.40;3.30;;;17.70;99.90;;;;;;5095590;28;20627;-41
2022/06/02 08:59:59;;;;;;;4.97;2.90;;;18.10;99.90;;;;;;5095356;28;20236;-39
2022/06/02 09:03:09;;;;;;;4.87;3.60;;;18.70;99.90;;;;;;5095458;28;20555;-41
2022/06/02 09:05:45;;;;;;;7.27;3.13;;;18.70;99.90;;;;;;5095492;28;20223;-41
2022/06/02 09:08:41;;;;;;;5.03;3.17;;;18.90;99.90;;;;;;5095413;28;20193;-40
2022/06/02 09:11:12;;;;;;;8.10;2.93;;;19.20;99.90;;;;;;5095590;28;20167;-40
2022/06/02 09:14:17;;;;;;;5.97;2.80;;;19.50;99.90;;;;;;5077046;28;20637;-40
2022/06/02 09:17:07;;;;;;;3.97;3.50;;;19.80;99.90;;;;;;5094372;28;20175;-40
2022/06/02 09:19:50;;;;;;;2.97;2.63;;;19.80;99.90;;;;;;5095134;28;20199;-42
2022/06/02 09:22:22;;;;;;;2.97;2.70;;;19.80;99.90;;;;;;5095348;28;20638;-39
2022/06/02 09:25:07;;;;;;;4.77;2.77;;;19.90;99.90;;;;;;5095184;28;20637;-40
2022/06/02 09:27:35;;;;;;;8.93;2.73;;;20.10;99.90;;;;;;5076780;28;20182;-41
2022/06/02 09:30:14;;;;;;;5.70;2.30;;;20.00;99.90;;;;;;5094856;28;20266;-39
2022/06/02 09:36:19;;;;;;;7.47;2.60;;;19.60;99.90;;;;;;5095051;28;20245;-41
2022/06/02 09:39:27;;;;;;;10.00;1.80;;;19.80;99.90;;;;;;5094886;28;20191;-42
2022/06/02 09:42:18;;;;;;;8.53;1.97;;;20.00;99.90;;;;;;5083550;28;20222;-42
2022/06/02 09:44:57;;;;;;;4.50;1.87;;;20.30;99.90;;;;;;5076591;28;20171;-41
2022/06/02 09:47:35;;;;;;;6.17;1.90;;;20.60;99.90;;;;;;5094826;28;20201;-41
2022/06/02 09:50:12;;;;;;;4.93;1.73;;;20.70;99.90;;;;;;5094801;28;20190;-41
2022/06/02 09:52:43;;;;;;;3.50;1.70;;;21.00;99.90;;;;;;5095428;28;20174;-42
2022/06/02 09:55:18;;;;;;;5.67;2.03;;;21.00;99.90;;;;;;5094834;28;20191;-41
2022/06/02 09:58:08;;;;;;;3.20;1.90;;;20.60;99.90;;;;;;5094401;28;20197;-40
2022/06/02 10:00:49;;;;;;;5.07;1.60;;;20.20;99.90;;;;;;5094055;28;20690;-40
2022/06/02 10:03:42;;;;;;;5.53;1.40;;;20.20;99.90;;;;;;5094306;28;20159;-40
2022/06/02 10:06:30;;;;;;;6.20;1.67;;;20.40;99.90;;;;;;5094396;28;20182;-40
2022/06/02 10:09:10;;;;;;;4.43;1.73;;;20.60;99.90;;;;;;5094357;28;20551;-41
2022/06/02 10:12:54;;;;;;;6.47;2.23;;;20.80;99.90;;;;;;5094475;28;20163;-41
2022/06/02 10:15:03;;;;;;;2.60;1.63;;;21.10;99.90;;;;;;5093743;28;20654;-41
2022/06/02 10:18:06;;;;;;;4.90;2.17;;;21.20;99.90;;;;;;5094468;28;20246;-41
2022/06/02 10:21:04;;;;;;;3.20;2.27;;;20.80;99.90;;;;;;4995309;28;20286;-41
2022/06/02 10:23:39;;;;;;;3.07;2.30;;;20.90;99.90;;;;;;5094212;28;20174;-42
2022/06/02 10:26:15;;;;;;;3.63;2.17;;;21.10;99.90;;;;;;5093761;28;20200;-41
2022/06/02 10:29:03;;;;;;;4.83;2.97;;;21.40;99.90;;;;;;5093743;28;20222;-41
2022/06/02 10:31:45;;;;;;;3.63;2.50;;;21.60;99.90;;;;;;5094353;28;20167;-43
2022/06/02 10:34:32;;;;;;;3.90;2.47;;;21.60;99.90;;;;;;5094448;28;20167;-42
2022/06/02 10:37:24;;;;;;;7.03;2.70;;;21.40;99.90;;;;;;5094391;28;20177;-42
2022/06/02 10:40:08;;;;;;;5.87;3.00;;;21.50;99.90;;;;;;5094032;28;20599;-41
2022/06/02 10:43:15;;;;;;;4.07;2.77;;;21.60;99.90;;;;;;5075725;28;20615;-42
2022/06/02 10:46:17;;;;;;;3.27;2.43;;;21.90;99.90;;;;;;5094091;28;20167;-45
2022/06/02 10:49:02;;;;;;;5.30;2.67;;;22.20;99.90;;;;;;5093467;28;20198;-48
2022/06/02 10:51:46;;;;;;;6.47;2.87;;;22.40;99.90;;;;;;5093992;28;20195;-47
2022/06/02 10:54:35;;;;;;;5.97;3.30;;;22.50;99.90;;;;;;5093508;28;20178;-47
2022/06/02 10:57:25;;;;;;;4.13;3.60;;;22.20;99.90;;;;;;5093582;28;20244;-47
2022/06/02 11:00:13;;;;;;;4.97;3.70;;;21.90;99.90;;;;;;5093444;28;20209;-46
2022/06/02 11:03:00;;;;;;;5.73;3.80;;;21.80;99.90;;;;;;5093675;28;20546;-47
2022/06/02 11:05:45;;;;;;;9.00;4.53;;;21.80;99.90;;;;;;5093681;28;20532;-47
2022/06/02 11:08:50;;;;;;;5.80;4.50;;;21.60;99.90;;;;;;5093609;28;20202;-46
2022/06/02 11:11:43;;;;;;;12.07;5.50;;;21.50;99.90;;;;;;5093896;28;20163;-47
2022/06/02 11:14:48;;;;;;;6.20;5.63;;;21.40;99.90;;;;;;5093687;28;20202;-48
2022/06/02 11:17:38;;;;;;;5.40;4.90;;;21.00;99.90;;;;;;5075718;28;20190;-46
2022/06/02 11:20:29;;;;;;;6.33;4.83;;;20.80;99.90;;;;;;5093458;28;20174;-47
2022/06/02 11:23:09;;;;;;;6.80;5.00;;;20.70;99.90;;;;;;5093584;28;20549;-47
2022/06/02 11:25:53;;;;;;;5.33;4.83;;;20.60;99.90;;;;;;5093282;28;20206;-45
2022/06/02 11:29:06;;;;;;;5.33;4.87;;;20.50;99.90;;;;;;5075018;28;20202;-46
2022/06/02 11:32:09;;;;;;;5.63;4.57;;;20.60;99.90;;;;;;5093499;28;20219;-47
2022/06/02 11:35:16;;;;;;;5.80;3.90;;;20.50;99.90;;;;;;5093461;28;20567;-46
2022/06/02 11:38:02;;;;;;;6.30;4.00;;;20.50;99.90;;;;;;5093580;28;20206;-47
2022/06/02 11:41:02;;;;;;;7.00;4.07;;;20.70;99.90;;;;;;5095765;28;20230;-47
2022/06/02 11:44:04;;;;;;;7.30;3.57;;;21.20;99.90;;;;;;5097391;28;20174;-46
2022/06/02 11:46:48;;;;;;;4.27;3.60;;;21.60;99.90;;;;;;5097263;28;20347;-47
2022/06/02 11:49:39;;;;;;;4.87;3.90;;;22.00;99.90;;;;;;5096932;28;20195;-48
2022/06/02 11:52:33;;;;;;;4.30;3.90;;;22.20;99.90;;;;;;5096852;28;20175;-47
2022/06/02 11:55:21;;;;;;;5.17;4.67;;;22.30;99.90;;;;;;5096996;28;20695;-47
2022/06/02 11:57:50;;;;;;;5.27;4.60;;;22.40;99.90;;;;;;5097214;28;20230;-47
2022/06/02 12:00:52;;;;;;;7.13;4.73;;;22.40;99.90;;;;;;5097296;28;20627;-42
2022/06/02 12:03:43;;;;;;;6.63;4.27;;;22.40;99.90;;;;;;5096745;28;20177;-41
2022/06/02 12:06:40;;;;;;;4.60;4.20;;;22.70;99.90;;;;;;5065890;28;20183;-42
2022/06/02 12:09:12;;;;;;;5.97;5.17;;;22.80;99.90;;;;;;5096657;28;20551;-43
2022/06/02 12:11:56;;;;;;;7.63;4.67;;;22.90;99.90;;;;;;5097043;28;20190;-42
2022/06/02 12:14:52;;;;;;;5.30;4.67;;;23.00;99.90;;;;;;5096688;28;20173;-42
2022/06/02 12:17:36;;;;;;;6.57;4.93;;;23.10;99.90;;;;;;5096834;28;20631;-41
2022/06/02 12:20:22;;;;;;;6.43;4.60;;;23.00;99.90;;;;;;5096781;28;20163;-44
2022/06/02 12:23:17;;;;;;;6.97;4.77;;;23.10;99.90;;;;;;5096512;28;20225;-43
2022/06/02 12:25:51;;;;;;;5.63;5.00;;;23.20;99.90;;;;;;5096827;28;20374;-41
2022/06/02 12:28:34;;;;;;;4.90;4.35;;;23.00;99.90;;;;;;5096195;28;20220;-42
2022/06/02 12:31:18;;;;;;;6.03;4.97;;;23.10;99.90;;;;;;5096645;28;20178;-42
2022/06/02 12:33:59;;;;;;;5.50;4.95;;;23.30;99.90;;;;;;5096532;28;20178;-42
2022/06/02 12:36:36;;;;;;;7.38;4.43;;;23.50;99.90;;;;;;5078150;28;20170;-43
2022/06/02 12:39:41;;;;;;;5.60;4.40;;;23.50;99.90;;;;;;5096215;28;20277;-41
2022/06/02 12:42:38;;;;;;;6.65;4.80;;;23.70;99.90;;;;;;5096183;28;20682;-42
2022/06/02 12:45:34;;;;;;;6.25;5.22;;;24.00;99.90;;;;;;5096081;28;20654;-44
2022/06/02 12:48:02;;;;;;;5.97;4.50;;;24.20;99.90;;;;;;5096211;28;20552;-43
2022/06/02 12:50:52;;;;;;;6.05;5.05;;;24.40;99.90;;;;;;5095890;28;20175;-42
2022/06/02 12:53:45;;;;;;;5.63;5.13;;;24.50;99.80;;;;;;5096346;28;20174;-42
2022/06/02 12:56:29;;;;;;;6.03;5.43;;;24.30;99.30;;;;;;5096005;28;20167;-42
2022/06/02 12:59:19;;;;;;;7.20;5.70;;;24.20;99.90;;;;;;5095626;28;20198;-42
2022/06/02 13:02:02;;;;;;;6.53;5.78;;;24.30;99.90;;;;;;5095811;28;20305;-42
2022/06/02 13:05:01;;;;;;;6.70;5.47;;;24.30;99.90;;;;;;5096161;28;20249;-42
2022/06/02 13:08:06;;;;;;;6.53;5.90;;;24.40;99.90;;;;;;5095831;28;20190;-42
2022/06/02 13:10:37;;;;;;;8.00;6.10;;;24.40;99.90;;;;;;5076386;28;20186;-41
2022/06/02 13:13:21;;;;;;;10.70;6.95;;;24.40;99.90;;;;;;5077608;28;20163;-42
2022/06/02 13:16:32;;;;;;;9.13;7.03;;;24.50;99.90;;;;;;5095470;28;20174;-43
2022/06/02 13:19:25;;;;;;;7.50;6.75;;;24.70;99.90;;;;;;5095655;28;20197;-42
2022/06/02 13:22:15;;;;;;;5.88;5.38;;;24.80;99.90;;;;;;5077133;28;20286;-41
2022/06/02 13:25:05;;;;;;;6.30;5.70;;;24.90;99.90;;;;;;5095639;28;20499;-42
2022/06/02 13:28:08;;;;;;;6.05;5.15;;;24.90;99.90;;;;;;5095174;28;20159;-42
2022/06/02 13:30:59;;;;;;;4.90;4.35;;;25.00;99.90;;;;;;5095257;28;20162;-42
2022/06/02 13:33:36;;;;;;;4.95;4.32;;;25.20;99.90;;;;;;5095340;28;20193;-43
2022/06/02 13:36:13;;;;;;;5.40;4.82;;;25.10;99.90;;;;;;5094727;28;20708;-43
2022/06/02 13:38:57;;;;;;;5.97;4.85;;;24.90;97.30;;;;;;5094711;28;20670;-42
2022/06/02 13:41:34;;;;;;;5.63;5.10;;;24.80;99.90;;;;;;5094917;28;20199;-43
2022/06/02 13:44:20;;;;;;;5.00;4.60;;;24.80;98.50;;;;;;5095056;28;20163;-43
2022/06/02 13:47:07;;;;;;;5.30;4.78;;;24.90;99.90;;;;;;5096865;28;20499;-44
2022/06/02 13:49:44;;;;;;;5.97;4.68;;;24.80;96.80;;;;;;5094496;28;20195;-43
2022/06/02 13:52:10;;;;;;;4.80;3.90;;;24.70;97.10;;;;;;5094958;28;20167;-43
2022/06/02 13:58:05;;;;;;;6.30;3.78;;;24.90;99.90;;;;;;5094355;28;20256;-42
2022/06/02 14:00:55;;;;;;;6.45;3.78;;;25.00;99.90;;;;;;5094299;28;20215;-42
2022/06/02 14:03:48;;;;;;;4.15;2.80;;;25.10;96.90;;;;;;5094075;28;20662;-42
2022/06/02 14:06:21;;;;;;;4.57;3.03;;;25.10;99.50;;;;;;5094390;28;20167;-42
2022/06/02 14:09:29;;;;;;;3.60;2.90;;;25.10;96.90;;;;;;5094220;28;20273;-42
2022/06/02 14:12:12;;;;;;;3.72;3.15;;;25.20;99.00;;;;;;5066553;28;20269;-41
2022/06/02 14:15:02;;;;;;;2.88;2.67;;;25.20;95.20;;;;;;5075964;28;20179;-42
2022/06/02 14:17:43;;;;;;;3.78;2.95;;;25.20;98.70;;;;;;5094524;28;20194;-42
2022/06/02 14:20:32;;;;;;;3.33;3.00;;;25.40;97.80;;;;;;5094328;28;20171;-43
2022/06/02 14:23:16;;;;;;;3.42;2.70;;;25.50;99.40;;;;;;5094080;28;20212;-41
2022/06/02 14:26:01;;;;;;;4.78;2.30;;;25.70;99.90;;;;;;5093972;28;20159;-42
2022/06/02 14:29:00;;;;;;;2.70;2.50;;;25.80;99.90;;;;;;5094033;28;20190;-43
2022/06/02 14:31:53;;;;;;;4.30;2.92;;;25.90;95.60;;;;;;5094125;28;20202;-42
2022/06/02 14:34:38;;;;;;;3.38;3.00;;;25.90;96.30;;;;;;5094080;28;20333;-43
2022/06/02 14:37:13;;;;;;;3.33;2.80;;;25.80;93.70;;;;;;5093772;28;20179;-41
2022/06/02 14:39:58;;;;;;;3.85;2.88;;;25.50;94.50;;;;;;5075568;28;20236;-42
2022/06/02 14:45:23;;;;;;;3.50;2.88;;;25.60;92.30;;;;;;5093966;28;20171;-42
2022/06/02 14:48:19;;;;;;;3.80;3.25;;;25.50;95.40;;;;;;5093934;28;20230;-42